sensor_id;sensor_type;location;lat;lon;timestamp;pressure;altitude;pressure_sealevel;temperature;humidity
49645;BME280;36494;50.730;-1.932;2022-10-16T00:00:01;100104.28;;;13.73;100.00
49645;BME280;36494;50.730;-1.932;2022-10-16T00:02:26;100101.54;;;13.77;100.00
49645;BME280;36494;50.730;-1.932;2022-10-16T00:04:52;100133.55;;;13.76;100.00
49645;BME280;36494;50.730;-1.932;2022-10-16T00:07:17;100156.84;;;13.69;100.00
49645;BME280;36494;50.730;-1.932;2022-10-16T00:09:42;100163.77;;;13.30;100.00
49645;BME280;36494;50.730;-1.932;2022-10-16T00:12:08;100172.33;;;13.15;100.00
49645;BME280;36494;50.730;-1.932;2022-10-16T00:14:33;100152.96;;;13.05;100.00
49645;BME280;36494;50.730;-1.932;2022-10-16T00:16:59;100155.91;;;12.96;100.00
49645;BME280;36494;50.730;-1.932;2022-10-16T00:19:24;100155.74;;;12.86;100.00
49645;BME280;36494;50.730;-1.932;2022-10-16T00:21:49;100162.16;;;12.79;100.00
49645;BME280;36494;50.730;-1.932;2022-10-16T00:24:15;100163.81;;;12.73;100.00
49645;BME280;36494;50.730;-1.932;2022-10-16T00:26:40;100168.23;;;12.65;100.00
49645;BME280;36494;50.730;-1.932;2022-10-16T00:29:06;100176.54;;;12.65;100.00
49645;BME280;36494;50.730;-1.932;2022-10-16T00:31:31;100172.44;;;12.56;100.00
49645;BME280;36494;50.730;-1.932;2022-10-16T00:33:56;100173.81;;;12.50;100.00
49645;BME280;36494;50.730;-1.932;2022-10-16T00:36:24;100176.71;;;12.46;100.00
49645;BME280;36494;50.730;-1.932;2022-10-16T00:38:50;100179.58;;;12.47;100.00
49645;BME280;36494;50.730;-1.932;2022-10-16T00:41:14;100183.25;;;12.43;100.00
49645;BME280;36494;50.730;-1.932;2022-10-16T00:43:40;100191.01;;;12.36;100.00
49645;BME280;36494;50.730;-1.932;2022-10-16T00:46:07;100183.48;;;12.31;100.00
49645;BME280;36494;50.730;-1.932;2022-10-16T00:48:28;100183.70;;;12.32;100.00
49645;BME280;36494;50.730;-1.932;2022-10-16T00:50:53;100183.22;;;12.31;100.00
49645;BME280;36494;50.730;-1.932;2022-10-16T00:53:18;100182.32;;;12.28;100.00
49645;BME280;36494;50.730;-1.932;2022-10-16T00:55:44;100187.49;;;12.28;100.00
49645;BME280;36494;50.730;-1.932;2022-10-16T00:58:09;100188.58;;;12.26;100.00
49645;BME280;36494;50.730;-1.932;2022-10-16T01:00:34;100190.63;;;12.26;100.00
49645;BME280;36494;50.730;-1.932;2022-10-16T01:03:01;100186.51;;;12.23;100.00
49645;BME280;36494;50.730;-1.932;2022-10-16T01:05:30;100182.34;;;12.18;100.00
49645;BME280;36494;50.730;-1.932;2022-10-16T01:07:56;100181.18;;;12.16;100.00
49645;BME280;36494;50.730;-1.932;2022-10-16T01:10:24;100186.40;;;12.14;100.00
49645;BME280;36494;50.730;-1.932;2022-10-16T01:12:45;100190.40;;;12.11;100.00
49645;BME280;36494;50.730;-1.932;2022-10-16T01:15:11;100195.27;;;12.06;100.00
49645;BME280;36494;50.730;-1.932;2022-10-16T01:17:35;100191.75;;;12.01;100.00
49645;BME280;36494;50.730;-1.932;2022-10-16T01:20:05;100191.44;;;11.97;100.00
49645;BME280;36494;50.730;-1.932;2022-10-16T01:22:26;100193.23;;;11.91;100.00
49645;BME280;36494;50.730;-1.932;2022-10-16T01:24:49;100195.34;;;11.86;100.00
49645;BME280;36494;50.730;-1.932;2022-10-16T01:27:14;100196.97;;;11.81;100.00
49645;BME280;36494;50.730;-1.932;2022-10-16T01:29:42;100194.87;;;11.77;100.00
49645;BME280;36494;50.730;-1.932;2022-10-16T01:32:10;100197.21;;;11.74;100.00
49645;BME280;36494;50.730;-1.932;2022-10-16T01:34:32;100200.41;;;11.72;100.00
49645;BME280;36494;50.730;-1.932;2022-10-16T01:36:56;100197.23;;;11.73;100.00
49645;BME280;36494;50.730;-1.932;2022-10-16T01:39:21;100195.87;;;11.72;100.00
49645;BME280;36494;50.730;-1.932;2022-10-16T01:41:47;100195.51;;;11.74;100.00
49645;BME280;36494;50.730;-1.932;2022-10-16T01:44:11;100198.11;;;11.73;100.00
49645;BME280;36494;50.730;-1.932;2022-10-16T01:46:37;100196.31;;;11.72;100.00
49645;BME280;36494;50.730;-1.932;2022-10-16T01:49:01;100197.98;;;11.78;100.00
49645;BME280;36494;50.730;-1.932;2022-10-16T01:51:26;100197.07;;;11.81;100.00
49645;BME280;36494;50.730;-1.932;2022-10-16T01:53:53;100199.30;;;11.84;100.00
49645;BME280;36494;50.730;-1.932;2022-10-16T01:56:17;100198.39;;;11.88;100.00
49645;BME280;36494;50.730;-1.932;2022-10-16T01:58:45;100199.00;;;11.90;100.00
49645;BME280;36494;50.730;-1.932;2022-10-16T02:01:08;100197.21;;;11.91;100.00
49645;BME280;36494;50.730;-1.932;2022-10-16T02:03:34;100197.07;;;11.96;100.00
49645;BME280;36494;50.730;-1.932;2022-10-16T02:05:58;100198.28;;;11.99;100.00
49645;BME280;36494;50.730;-1.932;2022-10-16T02:08:26;100203.58;;;12.02;100.00
49645;BME280;36494;50.730;-1.932;2022-10-16T02:10:48;100205.53;;;12.07;100.00
49645;BME280;36494;50.730;-1.932;2022-10-16T02:13:17;100204.00;;;12.11;100.00
49645;BME280;36494;50.730;-1.932;2022-10-16T02:15:39;100203.35;;;12.14;100.00
49645;BME280;36494;50.730;-1.932;2022-10-16T02:18:05;100207.21;;;12.16;100.00
49645;BME280;36494;50.730;-1.932;2022-10-16T02:20:32;100213.53;;;12.22;100.00
49645;BME280;36494;50.730;-1.932;2022-10-16T02:22:56;100221.95;;;12.24;100.00
49645;BME280;36494;50.730;-1.932;2022-10-16T02:25:24;100226.12;;;12.26;100.00
49645;BME280;36494;50.730;-1.932;2022-10-16T02:27:52;100234.68;;;12.28;100.00
49645;BME280;36494;50.730;-1.932;2022-10-16T02:30:14;100235.76;;;12.29;100.00
49645;BME280;36494;50.730;-1.932;2022-10-16T02:32:38;100236.36;;;12.30;100.00
49645;BME280;36494;50.730;-1.932;2022-10-16T02:35:01;100236.73;;;12.31;100.00
49645;BME280;36494;50.730;-1.932;2022-10-16T02:37:27;100239.01;;;12.27;100.00
49645;BME280;36494;50.730;-1.932;2022-10-16T02:39:52;100241.67;;;12.26;100.00
49645;BME280;36494;50.730;-1.932;2022-10-16T02:42:18;100247.20;;;12.25;100.00
49645;BME280;36494;50.730;-1.932;2022-10-16T02:44:42;100246.79;;;12.24;100.00
49645;BME280;36494;50.730;-1.932;2022-10-16T02:47:08;100249.64;;;12.23;100.00
49645;BME280;36494;50.730;-1.932;2022-10-16T02:49:33;100254.00;;;12.18;100.00
49645;BME280;36494;50.730;-1.932;2022-10-16T02:51:59;100256.38;;;12.20;100.00
49645;BME280;36494;50.730;-1.932;2022-10-16T02:54:24;100256.78;;;12.19;100.00
49645;BME280;36494;50.730;-1.932;2022-10-16T02:56:49;100257.61;;;12.16;100.00
49645;BME280;36494;50.730;-1.932;2022-10-16T02:59:15;100252.95;;;12.17;100.00
49645;BME280;36494;50.730;-1.932;2022-10-16T03:01:40;100249.56;;;12.17;100.00
49645;BME280;36494;50.730;-1.932;2022-10-16T03:04:06;100247.72;;;12.13;100.00
49645;BME280;36494;50.730;-1.932;2022-10-16T03:06:31;100251.14;;;12.12;100.00
49645;BME280;36494;50.730;-1.932;2022-10-16T03:08:56;100256.53;;;12.12;100.00
49645;BME280;36494;50.730;-1.932;2022-10-16T03:11:21;100254.70;;;12.11;100.00
49645;BME280;36494;50.730;-1.932;2022-10-16T03:13:47;100257.46;;;12.11;100.00
49645;BME280;36494;50.730;-1.932;2022-10-16T03:16:12;100260.21;;;12.10;100.00
49645;BME280;36494;50.730;-1.932;2022-10-16T03:18:37;100260.50;;;12.10;100.00
49645;BME280;36494;50.730;-1.932;2022-10-16T03:21:03;100258.52;;;12.08;100.00
49645;BME280;36494;50.730;-1.932;2022-10-16T03:23:28;100265.02;;;12.06;100.00
49645;BME280;36494;50.730;-1.932;2022-10-16T03:25:54;100265.21;;;12.05;100.00
49645;BME280;36494;50.730;-1.932;2022-10-16T03:28:19;100268.13;;;12.05;100.00
49645;BME280;36494;50.730;-1.932;2022-10-16T03:30:44;100266.38;;;12.04;100.00
49645;BME280;36494;50.730;-1.932;2022-10-16T03:33:09;100266.63;;;12.05;100.00
49645;BME280;36494;50.730;-1.932;2022-10-16T03:35:35;100263.92;;;12.01;100.00
49645;BME280;36494;50.730;-1.932;2022-10-16T03:38:01;100262.81;;;12.01;100.00
49645;BME280;36494;50.730;-1.932;2022-10-16T03:40:26;100265.99;;;11.99;100.00
49645;BME280;36494;50.730;-1.932;2022-10-16T03:42:51;100268.41;;;11.99;100.00
49645;BME280;36494;50.730;-1.932;2022-10-16T03:45:17;100277.00;;;12.00;100.00
49645;BME280;36494;50.730;-1.932;2022-10-16T03:47:42;100283.36;;;12.01;100.00
49645;BME280;36494;50.730;-1.932;2022-10-16T03:50:08;100291.08;;;12.02;100.00
49645;BME280;36494;50.730;-1.932;2022-10-16T03:52:34;100289.68;;;12.04;100.00
49645;BME280;36494;50.730;-1.932;2022-10-16T03:54:59;100296.62;;;12.03;100.00
49645;BME280;36494;50.730;-1.932;2022-10-16T03:57:24;100299.87;;;12.00;100.00
49645;BME280;36494;50.730;-1.932;2022-10-16T03:59:50;100304.62;;;12.01;100.00
49645;BME280;36494;50.730;-1.932;2022-10-16T04:02:15;100306.83;;;12.00;100.00
49645;BME280;36494;50.730;-1.932;2022-10-16T04:04:40;100313.99;;;12.00;100.00
49645;BME280;36494;50.730;-1.932;2022-10-16T04:07:06;100318.55;;;11.99;100.00
49645;BME280;36494;50.730;-1.932;2022-10-16T04:09:31;100320.49;;;12.00;100.00
49645;BME280;36494;50.730;-1.932;2022-10-16T04:11:56;100323.27;;;11.99;100.00
49645;BME280;36494;50.730;-1.932;2022-10-16T04:14:22;100324.99;;;11.97;100.00
49645;BME280;36494;50.730;-1.932;2022-10-16T04:16:47;100324.65;;;11.95;100.00
49645;BME280;36494;50.730;-1.932;2022-10-16T04:19:13;100325.16;;;11.95;100.00
49645;BME280;36494;50.730;-1.932;2022-10-16T04:21:38;100326.77;;;11.97;100.00
49645;BME280;36494;50.730;-1.932;2022-10-16T04:24:03;100328.12;;;11.98;100.00
49645;BME280;36494;50.730;-1.932;2022-10-16T04:26:29;100333.40;;;11.99;100.00
49645;BME280;36494;50.730;-1.932;2022-10-16T04:28:54;100334.37;;;11.98;100.00
49645;BME280;36494;50.730;-1.932;2022-10-16T04:31:19;100337.18;;;11.98;100.00
49645;BME280;36494;50.730;-1.932;2022-10-16T04:33:44;100340.84;;;12.00;100.00
49645;BME280;36494;50.730;-1.932;2022-10-16T04:36:10;100345.13;;;12.00;100.00
49645;BME280;36494;50.730;-1.932;2022-10-16T04:38:35;100345.72;;;12.01;100.00
49645;BME280;36494;50.730;-1.932;2022-10-16T04:41:00;100346.70;;;11.97;100.00
49645;BME280;36494;50.730;-1.932;2022-10-16T04:43:25;100348.54;;;11.97;100.00
49645;BME280;36494;50.730;-1.932;2022-10-16T04:45:50;100347.41;;;11.95;100.00
49645;BME280;36494;50.730;-1.932;2022-10-16T04:48:16;100348.70;;;11.91;100.00
49645;BME280;36494;50.730;-1.932;2022-10-16T04:50:41;100350.12;;;11.90;100.00
49645;BME280;36494;50.730;-1.932;2022-10-16T04:53:07;100358.15;;;11.88;100.00
49645;BME280;36494;50.730;-1.932;2022-10-16T04:55:32;100360.66;;;11.86;100.00
49645;BME280;36494;50.730;-1.932;2022-10-16T04:57:57;100361.27;;;11.86;100.00
49645;BME280;36494;50.730;-1.932;2022-10-16T05:00:23;100364.66;;;11.86;100.00
49645;BME280;36494;50.730;-1.932;2022-10-16T05:02:49;100368.35;;;11.85;100.00
49645;BME280;36494;50.730;-1.932;2022-10-16T05:05:13;100375.98;;;11.84;100.00
49645;BME280;36494;50.730;-1.932;2022-10-16T05:07:39;100376.60;;;11.84;100.00
49645;BME280;36494;50.730;-1.932;2022-10-16T05:10:04;100381.79;;;11.83;100.00
49645;BME280;36494;50.730;-1.932;2022-10-16T05:12:29;100386.92;;;11.81;100.00
49645;BME280;36494;50.730;-1.932;2022-10-16T05:14:54;100389.66;;;11.79;100.00
49645;BME280;36494;50.730;-1.932;2022-10-16T05:17:19;100392.33;;;11.79;100.00
49645;BME280;36494;50.730;-1.932;2022-10-16T05:19:44;100394.81;;;11.78;100.00
49645;BME280;36494;50.730;-1.932;2022-10-16T05:22:09;100404.34;;;11.77;100.00
49645;BME280;36494;50.730;-1.932;2022-10-16T05:24:35;100408.62;;;11.74;100.00
49645;BME280;36494;50.730;-1.932;2022-10-16T05:27:00;100411.80;;;11.71;100.00
49645;BME280;36494;50.730;-1.932;2022-10-16T05:29:26;100411.08;;;11.66;100.00
49645;BME280;36494;50.730;-1.932;2022-10-16T05:31:52;100415.80;;;11.62;100.00
49645;BME280;36494;50.730;-1.932;2022-10-16T05:34:17;100419.70;;;11.58;100.00
49645;BME280;36494;50.730;-1.932;2022-10-16T05:36:42;100424.53;;;11.53;100.00
49645;BME280;36494;50.730;-1.932;2022-10-16T05:39:07;100425.23;;;11.49;100.00
49645;BME280;36494;50.730;-1.932;2022-10-16T05:41:33;100426.62;;;11.44;100.00
49645;BME280;36494;50.730;-1.932;2022-10-16T05:43:58;100428.21;;;11.37;100.00
49645;BME280;36494;50.730;-1.932;2022-10-16T05:46:24;100428.21;;;11.30;100.00
49645;BME280;36494;50.730;-1.932;2022-10-16T05:48:51;100431.38;;;11.23;100.00
49645;BME280;36494;50.730;-1.932;2022-10-16T05:51:15;100434.20;;;11.17;100.00
49645;BME280;36494;50.730;-1.932;2022-10-16T05:53:41;100436.45;;;11.11;100.00
49645;BME280;36494;50.730;-1.932;2022-10-16T05:56:07;100435.33;;;11.09;100.00
49645;BME280;36494;50.730;-1.932;2022-10-16T05:58:33;100438.19;;;11.08;100.00
49645;BME280;36494;50.730;-1.932;2022-10-16T06:00:58;100436.78;;;11.04;100.00
49645;BME280;36494;50.730;-1.932;2022-10-16T06:03:22;100437.44;;;10.97;100.00
49645;BME280;36494;50.730;-1.932;2022-10-16T06:05:47;100439.37;;;10.93;100.00
49645;BME280;36494;50.730;-1.932;2022-10-16T06:08:12;100446.78;;;10.87;100.00
49645;BME280;36494;50.730;-1.932;2022-10-16T06:10:38;100451.43;;;10.81;100.00
49645;BME280;36494;50.730;-1.932;2022-10-16T06:13:03;100453.03;;;10.75;100.00
49645;BME280;36494;50.730;-1.932;2022-10-16T06:15:29;100454.87;;;10.70;100.00
49645;BME280;36494;50.730;-1.932;2022-10-16T06:17:54;100455.03;;;10.67;100.00
49645;BME280;36494;50.730;-1.932;2022-10-16T06:20:19;100456.30;;;10.63;100.00
49645;BME280;36494;50.730;-1.932;2022-10-16T06:22:45;100456.93;;;10.59;100.00
49645;BME280;36494;50.730;-1.932;2022-10-16T06:25:10;100463.00;;;10.57;100.00
49645;BME280;36494;50.730;-1.932;2022-10-16T06:27:35;100466.15;;;10.55;100.00
49645;BME280;36494;50.730;-1.932;2022-10-16T06:30:01;100465.20;;;10.52;100.00
49645;BME280;36494;50.730;-1.932;2022-10-16T06:32:27;100467.37;;;10.47;100.00
49645;BME280;36494;50.730;-1.932;2022-10-16T06:34:51;100474.20;;;10.46;100.00
49645;BME280;36494;50.730;-1.932;2022-10-16T06:37:17;100479.09;;;10.43;100.00
49645;BME280;36494;50.730;-1.932;2022-10-16T06:39:43;100484.30;;;10.40;100.00
49645;BME280;36494;50.730;-1.932;2022-10-16T06:42:07;100490.59;;;10.36;100.00
49645;BME280;36494;50.730;-1.932;2022-10-16T06:44:33;100494.51;;;10.32;100.00
49645;BME280;36494;50.730;-1.932;2022-10-16T06:46:58;100495.90;;;10.29;100.00
49645;BME280;36494;50.730;-1.932;2022-10-16T06:49:24;100500.52;;;10.25;100.00
49645;BME280;36494;50.730;-1.932;2022-10-16T06:51:49;100501.25;;;10.22;100.00
49645;BME280;36494;50.730;-1.932;2022-10-16T06:54:15;100497.68;;;10.18;100.00
49645;BME280;36494;50.730;-1.932;2022-10-16T06:56:39;100501.28;;;10.15;100.00
49645;BME280;36494;50.730;-1.932;2022-10-16T06:59:05;100505.26;;;10.12;100.00
49645;BME280;36494;50.730;-1.932;2022-10-16T07:01:30;100509.07;;;10.08;100.00
49645;BME280;36494;50.730;-1.932;2022-10-16T07:03:55;100511.45;;;10.05;100.00
49645;BME280;36494;50.730;-1.932;2022-10-16T07:06:22;100514.61;;;10.00;100.00
49645;BME280;36494;50.730;-1.932;2022-10-16T07:08:47;100520.51;;;9.99;100.00
49645;BME280;36494;50.730;-1.932;2022-10-16T07:11:13;100525.73;;;9.96;100.00
49645;BME280;36494;50.730;-1.932;2022-10-16T07:13:38;100527.32;;;9.93;100.00
49645;BME280;36494;50.730;-1.932;2022-10-16T07:16:07;100531.92;;;9.93;100.00
49645;BME280;36494;50.730;-1.932;2022-10-16T07:18:28;100534.08;;;9.92;100.00
49645;BME280;36494;50.730;-1.932;2022-10-16T07:20:53;100537.06;;;9.89;100.00
49645;BME280;36494;50.730;-1.932;2022-10-16T07:23:18;100538.18;;;9.87;100.00
49645;BME280;36494;50.730;-1.932;2022-10-16T07:25:43;100540.65;;;9.85;100.00
49645;BME280;36494;50.730;-1.932;2022-10-16T07:28:09;100547.45;;;9.82;100.00
49645;BME280;36494;50.730;-1.932;2022-10-16T07:30:35;100549.35;;;9.80;100.00
49645;BME280;36494;50.730;-1.932;2022-10-16T07:33:00;100553.92;;;9.79;100.00
49645;BME280;36494;50.730;-1.932;2022-10-16T07:35:25;100559.65;;;9.78;100.00
49645;BME280;36494;50.730;-1.932;2022-10-16T07:37:50;100558.54;;;9.78;100.00
49645;BME280;36494;50.730;-1.932;2022-10-16T07:40:15;100558.10;;;9.77;100.00
49645;BME280;36494;50.730;-1.932;2022-10-16T07:42:40;100561.54;;;9.77;100.00
49645;BME280;36494;50.730;-1.932;2022-10-16T07:45:06;100561.40;;;9.76;100.00
49645;BME280;36494;50.730;-1.932;2022-10-16T07:47:31;100561.31;;;9.76;100.00
49645;BME280;36494;50.730;-1.932;2022-10-16T07:49:56;100562.98;;;9.75;100.00
49645;BME280;36494;50.730;-1.932;2022-10-16T07:52:22;100568.79;;;9.76;100.00
49645;BME280;36494;50.730;-1.932;2022-10-16T07:54:47;100571.35;;;9.76;100.00
49645;BME280;36494;50.730;-1.932;2022-10-16T07:57:12;100570.95;;;9.76;100.00
49645;BME280;36494;50.730;-1.932;2022-10-16T07:59:38;100573.29;;;9.77;100.00
49645;BME280;36494;50.730;-1.932;2022-10-16T08:02:03;100569.15;;;9.78;100.00
49645;BME280;36494;50.730;-1.932;2022-10-16T08:04:29;100570.12;;;9.80;100.00
49645;BME280;36494;50.730;-1.932;2022-10-16T08:06:54;100569.72;;;9.82;100.00
49645;BME280;36494;50.730;-1.932;2022-10-16T08:09:19;100575.15;;;9.84;100.00
49645;BME280;36494;50.730;-1.932;2022-10-16T08:11:45;100582.16;;;9.86;100.00
49645;BME280;36494;50.730;-1.932;2022-10-16T08:14:10;100592.48;;;9.87;100.00
49645;BME280;36494;50.730;-1.932;2022-10-16T08:16:35;100593.66;;;9.92;100.00
49645;BME280;36494;50.730;-1.932;2022-10-16T08:19:01;100596.66;;;9.94;100.00
49645;BME280;36494;50.730;-1.932;2022-10-16T08:21:26;100600.37;;;9.97;100.00
49645;BME280;36494;50.730;-1.932;2022-10-16T08:23:53;100600.63;;;10.00;100.00
49645;BME280;36494;50.730;-1.932;2022-10-16T08:26:16;100605.24;;;10.03;100.00
49645;BME280;36494;50.730;-1.932;2022-10-16T08:28:42;100603.02;;;10.07;100.00
49645;BME280;36494;50.730;-1.932;2022-10-16T08:31:09;100604.44;;;10.12;100.00
49645;BME280;36494;50.730;-1.932;2022-10-16T08:33:32;100606.30;;;10.17;100.00
49645;BME280;36494;50.730;-1.932;2022-10-16T08:35:57;100608.83;;;10.22;100.00
49645;BME280;36494;50.730;-1.932;2022-10-16T08:38:23;100615.11;;;10.27;100.00
49645;BME280;36494;50.730;-1.932;2022-10-16T08:40:48;100620.42;;;10.33;100.00
49645;BME280;36494;50.730;-1.932;2022-10-16T08:43:24;100624.79;;;10.41;100.00
49645;BME280;36494;50.730;-1.932;2022-10-16T08:45:46;100625.03;;;10.44;100.00
49645;BME280;36494;50.730;-1.932;2022-10-16T08:48:14;100629.03;;;10.48;100.00
49645;BME280;36494;50.730;-1.932;2022-10-16T08:50:31;100631.48;;;10.55;100.00
49645;BME280;36494;50.730;-1.932;2022-10-16T08:52:54;100628.04;;;10.58;100.00
49645;BME280;36494;50.730;-1.932;2022-10-16T08:55:30;100627.13;;;10.64;100.00
49645;BME280;36494;50.730;-1.932;2022-10-16T08:57:45;100625.75;;;10.70;100.00
49645;BME280;36494;50.730;-1.932;2022-10-16T09:00:13;100620.02;;;10.78;100.00
49645;BME280;36494;50.730;-1.932;2022-10-16T09:02:38;100618.93;;;10.83;100.00
49645;BME280;36494;50.730;-1.932;2022-10-16T09:05:11;100622.52;;;10.90;100.00
49645;BME280;36494;50.730;-1.932;2022-10-16T09:07:31;100626.76;;;10.96;100.00
49645;BME280;36494;50.730;-1.932;2022-10-16T09:10:00;100626.50;;;11.01;100.00
49645;BME280;36494;50.730;-1.932;2022-10-16T09:12:21;100628.26;;;11.07;100.00
49645;BME280;36494;50.730;-1.932;2022-10-16T09:14:52;100630.05;;;11.11;100.00
49645;BME280;36494;50.730;-1.932;2022-10-16T09:17:20;100632.68;;;11.17;100.00
49645;BME280;36494;50.730;-1.932;2022-10-16T09:19:38;100636.95;;;11.23;100.00
49645;BME280;36494;50.730;-1.932;2022-10-16T09:21:59;100637.82;;;11.29;100.00
49645;BME280;36494;50.730;-1.932;2022-10-16T09:24:26;100641.63;;;11.35;100.00
49645;BME280;36494;50.730;-1.932;2022-10-16T09:26:50;100641.12;;;11.42;100.00
49645;BME280;36494;50.730;-1.932;2022-10-16T09:29:16;100641.07;;;11.49;100.00
49645;BME280;36494;50.730;-1.932;2022-10-16T09:31:42;100639.58;;;11.55;100.00
49645;BME280;36494;50.730;-1.932;2022-10-16T09:34:10;100639.21;;;11.64;100.00
49645;BME280;36494;50.730;-1.932;2022-10-16T09:36:36;100642.25;;;11.73;100.00
49645;BME280;36494;50.730;-1.932;2022-10-16T09:39:04;100646.09;;;11.79;100.00
49645;BME280;36494;50.730;-1.932;2022-10-16T09:41:22;100647.30;;;11.87;100.00
49645;BME280;36494;50.730;-1.932;2022-10-16T09:43:52;100647.90;;;11.94;100.00
49645;BME280;36494;50.730;-1.932;2022-10-16T09:46:21;100643.45;;;12.06;100.00
49645;BME280;36494;50.730;-1.932;2022-10-16T09:48:44;100633.06;;;12.12;100.00
49645;BME280;36494;50.730;-1.932;2022-10-16T09:51:13;100636.10;;;12.18;100.00
49645;BME280;36494;50.730;-1.932;2022-10-16T09:53:42;100636.51;;;12.27;100.00
49645;BME280;36494;50.730;-1.932;2022-10-16T09:55:57;100633.64;;;12.41;100.00
49645;BME280;36494;50.730;-1.932;2022-10-16T09:58:23;100634.58;;;12.53;100.00
49645;BME280;36494;50.730;-1.932;2022-10-16T10:00:49;100633.33;;;12.55;100.00
49645;BME280;36494;50.730;-1.932;2022-10-16T10:03:29;100632.24;;;12.63;100.00
49645;BME280;36494;50.730;-1.932;2022-10-16T10:05:39;100634.96;;;12.76;100.00
49645;BME280;36494;50.730;-1.932;2022-10-16T10:08:05;100633.12;;;12.94;100.00
49645;BME280;36494;50.730;-1.932;2022-10-16T10:10:32;100633.41;;;13.03;100.00
49645;BME280;36494;50.730;-1.932;2022-10-16T10:12:56;100633.32;;;13.16;100.00
49645;BME280;36494;50.730;-1.932;2022-10-16T10:15:23;100634.77;;;13.33;100.00
49645;BME280;36494;50.730;-1.932;2022-10-16T10:17:48;100627.26;;;13.45;100.00
49645;BME280;36494;50.730;-1.932;2022-10-16T10:22:41;100628.31;;;13.71;100.00
49645;BME280;36494;50.730;-1.932;2022-10-16T10:25:15;100626.04;;;13.79;100.00
49645;BME280;36494;50.730;-1.932;2022-10-16T10:27:37;100627.68;;;13.89;100.00
49645;BME280;36494;50.730;-1.932;2022-10-16T10:30:00;100625.58;;;13.98;100.00
49645;BME280;36494;50.730;-1.932;2022-10-16T10:32:25;100623.24;;;14.06;100.00
49645;BME280;36494;50.730;-1.932;2022-10-16T10:34:56;100625.09;;;14.14;100.00
49645;BME280;36494;50.730;-1.932;2022-10-16T10:37:21;100622.63;;;14.19;100.00
49645;BME280;36494;50.730;-1.932;2022-10-16T10:39:42;100619.67;;;14.19;100.00
49645;BME280;36494;50.730;-1.932;2022-10-16T10:42:13;100617.92;;;14.33;100.00
49645;BME280;36494;50.730;-1.932;2022-10-16T10:44:37;100617.61;;;14.43;100.00
49645;BME280;36494;50.730;-1.932;2022-10-16T10:46:56;100616.23;;;14.52;100.00
49645;BME280;36494;50.730;-1.932;2022-10-16T10:49:39;100620.40;;;14.47;100.00
49645;BME280;36494;50.730;-1.932;2022-10-16T10:51:51;100611.60;;;14.55;100.00
49645;BME280;36494;50.730;-1.932;2022-10-16T10:54:14;100612.23;;;14.45;100.00
49645;BME280;36494;50.730;-1.932;2022-10-16T10:56:44;100612.41;;;14.57;100.00
49645;BME280;36494;50.730;-1.932;2022-10-16T10:59:13;100613.01;;;14.54;100.00
49645;BME280;36494;50.730;-1.932;2022-10-16T11:01:32;100614.83;;;14.58;100.00
49645;BME280;36494;50.730;-1.932;2022-10-16T11:04:04;100618.23;;;14.56;100.00
49645;BME280;36494;50.730;-1.932;2022-10-16T11:06:20;100617.61;;;14.62;100.00
49645;BME280;36494;50.730;-1.932;2022-10-16T11:08:47;100611.23;;;14.72;100.00
49645;BME280;36494;50.730;-1.932;2022-10-16T11:11:14;100616.57;;;14.76;100.00
49645;BME280;36494;50.730;-1.932;2022-10-16T11:13:39;100616.38;;;14.71;100.00
49645;BME280;36494;50.730;-1.932;2022-10-16T11:16:02;100616.39;;;14.71;100.00
49645;BME280;36494;50.730;-1.932;2022-10-16T11:18:33;100621.38;;;14.81;100.00
49645;BME280;36494;50.730;-1.932;2022-10-16T11:20:54;100619.72;;;14.82;100.00
49645;BME280;36494;50.730;-1.932;2022-10-16T11:23:22;100621.25;;;14.87;100.00
49645;BME280;36494;50.730;-1.932;2022-10-16T11:25:43;100624.54;;;14.95;100.00
49645;BME280;36494;50.730;-1.932;2022-10-16T11:28:11;100615.86;;;14.85;100.00
49645;BME280;36494;50.730;-1.932;2022-10-16T11:30:39;100614.19;;;14.84;100.00
49645;BME280;36494;50.730;-1.932;2022-10-16T11:33:08;100613.76;;;15.04;100.00
49645;BME280;36494;50.730;-1.932;2022-10-16T11:35:27;100615.89;;;14.96;100.00
49645;BME280;36494;50.730;-1.932;2022-10-16T11:37:50;100613.87;;;15.15;100.00
49645;BME280;36494;50.730;-1.932;2022-10-16T11:40:28;100610.36;;;15.16;100.00
49645;BME280;36494;50.730;-1.932;2022-10-16T11:42:44;100601.29;;;15.23;100.00
49645;BME280;36494;50.730;-1.932;2022-10-16T11:45:13;100603.04;;;15.12;100.00
49645;BME280;36494;50.730;-1.932;2022-10-16T11:47:34;100597.35;;;15.19;100.00
49645;BME280;36494;50.730;-1.932;2022-10-16T11:50:00;100595.19;;;15.03;100.00
49645;BME280;36494;50.730;-1.932;2022-10-16T11:52:27;100585.98;;;14.99;100.00
49645;BME280;36494;50.730;-1.932;2022-10-16T11:54:50;100590.68;;;15.17;100.00
49645;BME280;36494;50.730;-1.932;2022-10-16T11:57:17;100590.60;;;15.22;100.00
49645;BME280;36494;50.730;-1.932;2022-10-16T11:59:42;100602.12;;;15.11;100.00
49645;BME280;36494;50.730;-1.932;2022-10-16T12:04:33;100603.01;;;15.48;100.00
49645;BME280;36494;50.730;-1.932;2022-10-16T12:06:59;100607.34;;;15.39;100.00
49645;BME280;36494;50.730;-1.932;2022-10-16T12:09:22;100606.02;;;15.32;100.00
49645;BME280;36494;50.730;-1.932;2022-10-16T12:11:44;100603.61;;;15.33;100.00
49645;BME280;36494;50.730;-1.932;2022-10-16T12:14:22;100600.78;;;15.30;100.00
49645;BME280;36494;50.730;-1.932;2022-10-16T12:16:37;100598.77;;;15.31;100.00
49645;BME280;36494;50.730;-1.932;2022-10-16T12:19:10;100599.07;;;15.27;100.00
49645;BME280;36494;50.730;-1.932;2022-10-16T12:21:30;100600.03;;;15.37;100.00
49645;BME280;36494;50.730;-1.932;2022-10-16T12:23:53;100592.71;;;15.34;100.00